sensor_id;sensor_type;location;lat;lon;timestamp;P1;durP1;ratioP1;P2;durP2;ratioP2
20880;SDS011;10600;53.096;8.802;2023-05-31T00:00:24;41.88;;;16.08;;
20880;SDS011;10600;53.096;8.802;2023-05-31T00:01:24;37.85;;;14.45;;
20880;SDS011;10600;53.096;8.802;2023-05-31T00:02:25;42.03;;;14.60;;
20880;SDS011;10600;53.096;8.802;2023-05-31T00:03:26;43.47;;;15.38;;
20880;SDS011;10600;53.096;8.802;2023-05-31T00:04:27;40.30;;;15.48;;
20880;SDS011;10600;53.096;8.802;2023-05-31T00:05:27;39.35;;;14.52;;
20880;SDS011;10600;53.096;8.802;2023-05-31T00:06:28;44.55;;;17.67;;
20880;SDS011;10600;53.096;8.802;2023-05-31T00:07:28;47.95;;;16.63;;
20880;SDS011;10600;53.096;8.802;2023-05-31T00:08:29;37.95;;;15.70;;
20880;SDS011;10600;53.096;8.802;2023-05-31T00:09:30;46.85;;;14.52;;
20880;SDS011;10600;53.096;8.802;2023-05-31T00:10:30;42.35;;;14.75;;
20880;SDS011;10600;53.096;8.802;2023-05-31T00:11:31;44.92;;;14.75;;
20880;SDS011;10600;53.096;8.802;2023-05-31T00:12:32;44.30;;;15.57;;
20880;SDS011;10600;53.096;8.802;2023-05-31T00:13:32;40.78;;;16.50;;
20880;SDS011;10600;53.096;8.802;2023-05-31T00:14:33;51.50;;;14.82;;
20880;SDS011;10600;53.096;8.802;2023-05-31T00:15:34;43.22;;;15.68;;
20880;SDS011;10600;53.096;8.802;2023-05-31T00:16:34;41.88;;;14.95;;
20880;SDS011;10600;53.096;8.802;2023-05-31T00:17:35;47.05;;;14.25;;
20880;SDS011;10600;53.096;8.802;2023-05-31T00:18:36;41.33;;;14.55;;
20880;SDS011;10600;53.096;8.802;2023-05-31T00:19:36;47.17;;;14.98;;
20880;SDS011;10600;53.096;8.802;2023-05-31T00:20:37;41.17;;;14.68;;
20880;SDS011;10600;53.096;8.802;2023-05-31T00:21:38;45.28;;;15.68;;
20880;SDS011;10600;53.096;8.802;2023-05-31T00:22:38;44.42;;;14.85;;
20880;SDS011;10600;53.096;8.802;2023-05-31T00:23:39;42.65;;;14.55;;
20880;SDS011;10600;53.096;8.802;2023-05-31T00:24:40;41.03;;;13.68;;
20880;SDS011;10600;53.096;8.802;2023-05-31T00:25:40;45.97;;;14.05;;
20880;SDS011;10600;53.096;8.802;2023-05-31T00:26:41;40.58;;;14.07;;
20880;SDS011;10600;53.096;8.802;2023-05-31T00:27:41;39.10;;;14.05;;
20880;SDS011;10600;53.096;8.802;2023-05-31T00:28:42;43.85;;;14.20;;
20880;SDS011;10600;53.096;8.802;2023-05-31T00:29:43;43.80;;;14.50;;
20880;SDS011;10600;53.096;8.802;2023-05-31T00:30:43;45.85;;;14.48;;
20880;SDS011;10600;53.096;8.802;2023-05-31T00:31:44;44.75;;;14.77;;
20880;SDS011;10600;53.096;8.802;2023-05-31T00:32:45;45.13;;;14.48;;
20880;SDS011;10600;53.096;8.802;2023-05-31T00:33:46;43.80;;;14.13;;
20880;SDS011;10600;53.096;8.802;2023-05-31T00:34:46;45.47;;;14.98;;
20880;SDS011;10600;53.096;8.802;2023-05-31T00:35:47;44.65;;;14.98;;
20880;SDS011;10600;53.096;8.802;2023-05-31T00:36:47;40.95;;;13.82;;
20880;SDS011;10600;53.096;8.802;2023-05-31T00:37:48;44.90;;;15.60;;
20880;SDS011;10600;53.096;8.802;2023-05-31T00:38:49;38.05;;;13.95;;
20880;SDS011;10600;53.096;8.802;2023-05-31T00:39:49;43.65;;;14.52;;
20880;SDS011;10600;53.096;8.802;2023-05-31T00:40:50;43.30;;;15.70;;
20880;SDS011;10600;53.096;8.802;2023-05-31T00:41:50;49.75;;;15.40;;
20880;SDS011;10600;53.096;8.802;2023-05-31T00:42:51;44.45;;;14.57;;
20880;SDS011;10600;53.096;8.802;2023-05-31T00:43:52;49.53;;;15.18;;
20880;SDS011;10600;53.096;8.802;2023-05-31T00:44:53;45.88;;;14.73;;
20880;SDS011;10600;53.096;8.802;2023-05-31T00:45:53;46.75;;;15.00;;
20880;SDS011;10600;53.096;8.802;2023-05-31T00:46:54;47.20;;;14.57;;
20880;SDS011;10600;53.096;8.802;2023-05-31T00:47:55;43.65;;;14.55;;
20880;SDS011;10600;53.096;8.802;2023-05-31T00:48:56;48.47;;;14.13;;
20880;SDS011;10600;53.096;8.802;2023-05-31T00:49:58;41.00;;;13.82;;
20880;SDS011;10600;53.096;8.802;2023-05-31T00:50:58;45.00;;;14.45;;
20880;SDS011;10600;53.096;8.802;2023-05-31T00:51:59;43.00;;;14.02;;
20880;SDS011;10600;53.096;8.802;2023-05-31T00:53:00;46.40;;;15.70;;
20880;SDS011;10600;53.096;8.802;2023-05-31T00:54:03;46.00;;;15.50;;
20880;SDS011;10600;53.096;8.802;2023-05-31T00:55:04;45.03;;;15.48;;
20880;SDS011;10600;53.096;8.802;2023-05-31T00:56:05;46.53;;;14.48;;
20880;SDS011;10600;53.096;8.802;2023-05-31T00:57:06;52.13;;;14.68;;
20880;SDS011;10600;53.096;8.802;2023-05-31T00:58:07;45.22;;;15.75;;
20880;SDS011;10600;53.096;8.802;2023-05-31T00:59:09;50.00;;;15.32;;
20880;SDS011;10600;53.096;8.802;2023-05-31T01:00:10;51.67;;;15.68;;
20880;SDS011;10600;53.096;8.802;2023-05-31T01:01:12;44.47;;;14.32;;
20880;SDS011;10600;53.096;8.802;2023-05-31T01:02:14;45.03;;;14.57;;
20880;SDS011;10600;53.096;8.802;2023-05-31T01:03:17;45.33;;;15.07;;
20880;SDS011;10600;53.096;8.802;2023-05-31T01:04:19;44.47;;;15.23;;
20880;SDS011;10600;53.096;8.802;2023-05-31T01:05:20;51.50;;;15.40;;
20880;SDS011;10600;53.096;8.802;2023-05-31T01:06:21;50.58;;;14.82;;
20880;SDS011;10600;53.096;8.802;2023-05-31T01:07:23;51.55;;;15.52;;
20880;SDS011;10600;53.096;8.802;2023-05-31T01:08:24;45.17;;;14.60;;
20880;SDS011;10600;53.096;8.802;2023-05-31T01:09:24;50.72;;;15.65;;
20880;SDS011;10600;53.096;8.802;2023-05-31T01:10:25;53.08;;;15.80;;
20880;SDS011;10600;53.096;8.802;2023-05-31T01:16:16;49.67;;;16.10;;
20880;SDS011;10600;53.096;8.802;2023-05-31T01:17:23;51.65;;;15.00;;
20880;SDS011;10600;53.096;8.802;2023-05-31T01:18:31;48.22;;;16.15;;
20880;SDS011;10600;53.096;8.802;2023-05-31T01:19:45;51.95;;;15.68;;
20880;SDS011;10600;53.096;8.802;2023-05-31T01:20:54;57.08;;;15.50;;
20880;SDS011;10600;53.096;8.802;2023-05-31T01:22:01;50.05;;;15.48;;
20880;SDS011;10600;53.096;8.802;2023-05-31T01:24:34;51.40;;;15.18;;
20880;SDS011;10600;53.096;8.802;2023-05-31T01:26:03;51.00;;;15.15;;
20880;SDS011;10600;53.096;8.802;2023-05-31T01:27:25;49.05;;;14.65;;
20880;SDS011;10600;53.096;8.802;2023-05-31T01:28:27;49.95;;;14.65;;
20880;SDS011;10600;53.096;8.802;2023-05-31T01:29:32;56.40;;;16.17;;
20880;SDS011;10600;53.096;8.802;2023-05-31T01:30:35;44.55;;;14.45;;
20880;SDS011;10600;53.096;8.802;2023-05-31T01:31:37;48.30;;;16.20;;
20880;SDS011;10600;53.096;8.802;2023-05-31T01:32:40;49.95;;;15.32;;
20880;SDS011;10600;53.096;8.802;2023-05-31T01:33:41;48.22;;;15.13;;
20880;SDS011;10600;53.096;8.802;2023-05-31T01:34:44;47.15;;;15.80;;
20880;SDS011;10600;53.096;8.802;2023-05-31T01:35:45;56.25;;;16.35;;
20880;SDS011;10600;53.096;8.802;2023-05-31T01:36:46;49.97;;;15.50;;
20880;SDS011;10600;53.096;8.802;2023-05-31T01:37:46;45.90;;;15.63;;
20880;SDS011;10600;53.096;8.802;2023-05-31T01:38:47;51.42;;;15.57;;
20880;SDS011;10600;53.096;8.802;2023-05-31T01:39:48;62.63;;;16.90;;
20880;SDS011;10600;53.096;8.802;2023-05-31T01:40:50;55.25;;;15.30;;
20880;SDS011;10600;53.096;8.802;2023-05-31T01:41:52;51.58;;;16.27;;
20880;SDS011;10600;53.096;8.802;2023-05-31T01:42:54;48.10;;;15.52;;
20880;SDS011;10600;53.096;8.802;2023-05-31T01:43:55;51.78;;;16.33;;
20880;SDS011;10600;53.096;8.802;2023-05-31T01:44:57;45.30;;;15.30;;
20880;SDS011;10600;53.096;8.802;2023-05-31T01:45:58;50.85;;;15.43;;
20880;SDS011;10600;53.096;8.802;2023-05-31T01:47:00;60.20;;;16.15;;
20880;SDS011;10600;53.096;8.802;2023-05-31T01:48:02;53.25;;;15.68;;
20880;SDS011;10600;53.096;8.802;2023-05-31T01:49:05;49.95;;;15.27;;
20880;SDS011;10600;53.096;8.802;2023-05-31T01:50:06;50.08;;;16.85;;
20880;SDS011;10600;53.096;8.802;2023-05-31T01:51:09;53.72;;;16.88;;
20880;SDS011;10600;53.096;8.802;2023-05-31T01:52:12;57.30;;;16.38;;
20880;SDS011;10600;53.096;8.802;2023-05-31T01:53:15;55.58;;;15.88;;
20880;SDS011;10600;53.096;8.802;2023-05-31T01:54:15;52.55;;;15.95;;
20880;SDS011;10600;53.096;8.802;2023-05-31T01:55:16;62.40;;;17.15;;
20880;SDS011;10600;53.096;8.802;2023-05-31T01:56:18;52.97;;;17.05;;
20880;SDS011;10600;53.096;8.802;2023-05-31T01:57:20;57.40;;;16.65;;
20880;SDS011;10600;53.096;8.802;2023-05-31T01:58:22;50.90;;;16.40;;
20880;SDS011;10600;53.096;8.802;2023-05-31T01:59:24;55.33;;;16.75;;
20880;SDS011;10600;53.096;8.802;2023-05-31T02:00:26;47.50;;;15.63;;
20880;SDS011;10600;53.096;8.802;2023-05-31T02:01:27;56.55;;;15.77;;
20880;SDS011;10600;53.096;8.802;2023-05-31T02:02:28;64.82;;;17.65;;
20880;SDS011;10600;53.096;8.802;2023-05-31T02:03:29;58.55;;;17.52;;
20880;SDS011;10600;53.096;8.802;2023-05-31T02:04:30;59.22;;;16.25;;
20880;SDS011;10600;53.096;8.802;2023-05-31T02:05:30;62.95;;;17.05;;
20880;SDS011;10600;53.096;8.802;2023-05-31T02:06:34;57.17;;;16.63;;
20880;SDS011;10600;53.096;8.802;2023-05-31T02:07:37;52.83;;;16.63;;
20880;SDS011;10600;53.096;8.802;2023-05-31T02:08:37;57.92;;;16.90;;
20880;SDS011;10600;53.096;8.802;2023-05-31T02:09:38;58.13;;;17.23;;
20880;SDS011;10600;53.096;8.802;2023-05-31T02:10:39;62.47;;;16.92;;
20880;SDS011;10600;53.096;8.802;2023-05-31T02:11:40;58.50;;;16.00;;
20880;SDS011;10600;53.096;8.802;2023-05-31T02:12:40;61.90;;;16.40;;
20880;SDS011;10600;53.096;8.802;2023-05-31T02:13:41;59.03;;;17.70;;
20880;SDS011;10600;53.096;8.802;2023-05-31T02:14:42;56.65;;;15.73;;
20880;SDS011;10600;53.096;8.802;2023-05-31T02:15:43;55.55;;;15.88;;
20880;SDS011;10600;53.096;8.802;2023-05-31T02:16:43;57.17;;;16.00;;
20880;SDS011;10600;53.096;8.802;2023-05-31T02:17:44;60.67;;;17.48;;
20880;SDS011;10600;53.096;8.802;2023-05-31T02:18:46;62.95;;;17.75;;
20880;SDS011;10600;53.096;8.802;2023-05-31T02:19:47;59.33;;;16.45;;
20880;SDS011;10600;53.096;8.802;2023-05-31T02:20:48;71.18;;;18.63;;
20880;SDS011;10600;53.096;8.802;2023-05-31T02:21:48;59.40;;;18.17;;
20880;SDS011;10600;53.096;8.802;2023-05-31T02:22:49;68.28;;;18.15;;
20880;SDS011;10600;53.096;8.802;2023-05-31T02:23:49;60.10;;;17.92;;
20880;SDS011;10600;53.096;8.802;2023-05-31T02:24:50;69.75;;;17.38;;
20880;SDS011;10600;53.096;8.802;2023-05-31T02:25:52;64.18;;;17.95;;
20880;SDS011;10600;53.096;8.802;2023-05-31T02:26:53;67.03;;;18.65;;
20880;SDS011;10600;53.096;8.802;2023-05-31T02:27:54;64.28;;;17.83;;
20880;SDS011;10600;53.096;8.802;2023-05-31T02:28:55;69.95;;;18.27;;
20880;SDS011;10600;53.096;8.802;2023-05-31T02:29:55;58.20;;;17.60;;
20880;SDS011;10600;53.096;8.802;2023-05-31T02:30:56;55.55;;;16.80;;
20880;SDS011;10600;53.096;8.802;2023-05-31T02:31:58;56.00;;;17.48;;
20880;SDS011;10600;53.096;8.802;2023-05-31T02:32:59;87.05;;;18.92;;
20880;SDS011;10600;53.096;8.802;2023-05-31T02:34:00;66.78;;;17.38;;
20880;SDS011;10600;53.096;8.802;2023-05-31T02:35:04;68.05;;;18.13;;
20880;SDS011;10600;53.096;8.802;2023-05-31T02:36:06;66.13;;;17.42;;
20880;SDS011;10600;53.096;8.802;2023-05-31T02:37:06;78.13;;;19.08;;
20880;SDS011;10600;53.096;8.802;2023-05-31T02:38:07;87.80;;;16.77;;
20880;SDS011;10600;53.096;8.802;2023-05-31T02:39:08;75.80;;;18.65;;
20880;SDS011;10600;53.096;8.802;2023-05-31T02:40:08;75.18;;;17.58;;
20880;SDS011;10600;53.096;8.802;2023-05-31T02:41:09;79.93;;;17.55;;
20880;SDS011;10600;53.096;8.802;2023-05-31T02:42:10;82.25;;;18.00;;
20880;SDS011;10600;53.096;8.802;2023-05-31T02:43:10;68.65;;;17.45;;
20880;SDS011;10600;53.096;8.802;2023-05-31T02:44:11;74.65;;;18.65;;
20880;SDS011;10600;53.096;8.802;2023-05-31T02:45:13;75.53;;;17.75;;
20880;SDS011;10600;53.096;8.802;2023-05-31T02:46:14;90.70;;;17.75;;
20880;SDS011;10600;53.096;8.802;2023-05-31T02:47:15;127.68;;;20.40;;
20880;SDS011;10600;53.096;8.802;2023-05-31T02:48:16;83.03;;;17.48;;
20880;SDS011;10600;53.096;8.802;2023-05-31T02:49:17;86.65;;;19.88;;
20880;SDS011;10600;53.096;8.802;2023-05-31T02:50:17;139.38;;;21.50;;
20880;SDS011;10600;53.096;8.802;2023-05-31T02:51:18;87.88;;;18.25;;
20880;SDS011;10600;53.096;8.802;2023-05-31T02:52:19;99.78;;;17.70;;
20880;SDS011;10600;53.096;8.802;2023-05-31T02:53:20;89.88;;;17.98;;
20880;SDS011;10600;53.096;8.802;2023-05-31T02:54:21;88.57;;;18.83;;
20880;SDS011;10600;53.096;8.802;2023-05-31T02:55:22;81.53;;;18.52;;
20880;SDS011;10600;53.096;8.802;2023-05-31T02:56:22;135.25;;;19.63;;
20880;SDS011;10600;53.096;8.802;2023-05-31T02:57:23;123.80;;;19.60;;
20880;SDS011;10600;53.096;8.802;2023-05-31T02:58:24;126.10;;;19.17;;
20880;SDS011;10600;53.096;8.802;2023-05-31T02:59:25;92.47;;;16.85;;
20880;SDS011;10600;53.096;8.802;2023-05-31T03:00:25;127.32;;;18.30;;
20880;SDS011;10600;53.096;8.802;2023-05-31T03:01:26;92.00;;;17.67;;
20880;SDS011;10600;53.096;8.802;2023-05-31T03:02:26;165.30;;;19.00;;
20880;SDS011;10600;53.096;8.802;2023-05-31T03:03:27;96.38;;;16.40;;
20880;SDS011;10600;53.096;8.802;2023-05-31T03:04:28;115.30;;;17.48;;
20880;SDS011;10600;53.096;8.802;2023-05-31T03:05:28;113.00;;;17.00;;
20880;SDS011;10600;53.096;8.802;2023-05-31T03:06:29;111.35;;;17.80;;
20880;SDS011;10600;53.096;8.802;2023-05-31T03:07:31;91.43;;;16.13;;
20880;SDS011;10600;53.096;8.802;2023-05-31T03:08:38;119.65;;;15.57;;
20880;SDS011;10600;53.096;8.802;2023-05-31T03:09:38;119.00;;;16.40;;
20880;SDS011;10600;53.096;8.802;2023-05-31T03:10:39;213.93;;;20.27;;
20880;SDS011;10600;53.096;8.802;2023-05-31T03:11:40;94.85;;;15.55;;
20880;SDS011;10600;53.096;8.802;2023-05-31T03:12:41;94.25;;;15.40;;
20880;SDS011;10600;53.096;8.802;2023-05-31T03:13:41;122.03;;;17.90;;
20880;SDS011;10600;53.096;8.802;2023-05-31T03:14:42;135.30;;;18.27;;
20880;SDS011;10600;53.096;8.802;2023-05-31T03:15:43;128.50;;;18.25;;
20880;SDS011;10600;53.096;8.802;2023-05-31T03:16:44;132.73;;;18.17;;
20880;SDS011;10600;53.096;8.802;2023-05-31T03:17:45;165.82;;;20.95;;
20880;SDS011;10600;53.096;8.802;2023-05-31T03:18:46;123.93;;;18.15;;
20880;SDS011;10600;53.096;8.802;2023-05-31T03:19:46;78.53;;;17.05;;
20880;SDS011;10600;53.096;8.802;2023-05-31T03:20:47;156.88;;;20.38;;
20880;SDS011;10600;53.096;8.802;2023-05-31T03:21:47;111.57;;;17.85;;
20880;SDS011;10600;53.096;8.802;2023-05-31T03:22:48;83.35;;;17.45;;
20880;SDS011;10600;53.096;8.802;2023-05-31T03:23:49;97.93;;;18.90;;
20880;SDS011;10600;53.096;8.802;2023-05-31T03:24:50;92.93;;;16.20;;
20880;SDS011;10600;53.096;8.802;2023-05-31T03:25:50;159.88;;;19.73;;
20880;SDS011;10600;53.096;8.802;2023-05-31T03:26:51;179.15;;;19.88;;
20880;SDS011;10600;53.096;8.802;2023-05-31T03:27:52;126.15;;;19.88;;
20880;SDS011;10600;53.096;8.802;2023-05-31T03:28:52;171.98;;;20.50;;
20880;SDS011;10600;53.096;8.802;2023-05-31T03:29:53;207.32;;;22.27;;
20880;SDS011;10600;53.096;8.802;2023-05-31T03:30:53;147.75;;;20.40;;
20880;SDS011;10600;53.096;8.802;2023-05-31T03:31:55;97.75;;;17.33;;
20880;SDS011;10600;53.096;8.802;2023-05-31T03:32:55;166.93;;;21.45;;
20880;SDS011;10600;53.096;8.802;2023-05-31T03:33:56;134.82;;;20.40;;
20880;SDS011;10600;53.096;8.802;2023-05-31T03:34:57;108.32;;;17.45;;
20880;SDS011;10600;53.096;8.802;2023-05-31T03:35:57;107.68;;;19.33;;
20880;SDS011;10600;53.096;8.802;2023-05-31T03:36:58;105.57;;;18.17;;
20880;SDS011;10600;53.096;8.802;2023-05-31T03:37:59;88.60;;;19.27;;
20880;SDS011;10600;53.096;8.802;2023-05-31T03:38:59;89.60;;;18.15;;
20880;SDS011;10600;53.096;8.802;2023-05-31T03:40:00;118.85;;;17.92;;
20880;SDS011;10600;53.096;8.802;2023-05-31T03:41:01;84.35;;;16.42;;
20880;SDS011;10600;53.096;8.802;2023-05-31T03:42:01;111.18;;;18.77;;
20880;SDS011;10600;53.096;8.802;2023-05-31T03:43:02;128.45;;;20.73;;
20880;SDS011;10600;53.096;8.802;2023-05-31T03:44:03;74.05;;;16.42;;
20880;SDS011;10600;53.096;8.802;2023-05-31T03:45:03;110.80;;;18.40;;
20880;SDS011;10600;53.096;8.802;2023-05-31T03:46:04;81.65;;;18.13;;
20880;SDS011;10600;53.096;8.802;2023-05-31T03:47:05;75.68;;;20.63;;
20880;SDS011;10600;53.096;8.802;2023-05-31T03:48:06;79.88;;;18.08;;
20880;SDS011;10600;53.096;8.802;2023-05-31T03:49:07;118.45;;;18.30;;
20880;SDS011;10600;53.096;8.802;2023-05-31T03:50:08;100.20;;;17.42;;
20880;SDS011;10600;53.096;8.802;2023-05-31T03:51:10;86.03;;;16.75;;
20880;SDS011;10600;53.096;8.802;2023-05-31T03:52:11;82.85;;;15.15;;
20880;SDS011;10600;53.096;8.802;2023-05-31T03:53:12;75.95;;;15.13;;
20880;SDS011;10600;53.096;8.802;2023-05-31T03:54:13;101.55;;;15.23;;
20880;SDS011;10600;53.096;8.802;2023-05-31T03:55:14;62.50;;;15.25;;
20880;SDS011;10600;53.096;8.802;2023-05-31T03:56:14;76.30;;;15.38;;
20880;SDS011;10600;53.096;8.802;2023-05-31T03:57:15;73.78;;;16.02;;
20880;SDS011;10600;53.096;8.802;2023-05-31T03:58:16;77.57;;;16.38;;
20880;SDS011;10600;53.096;8.802;2023-05-31T03:59:17;80.95;;;15.02;;
20880;SDS011;10600;53.096;8.802;2023-05-31T04:00:18;73.03;;;15.57;;
20880;SDS011;10600;53.096;8.802;2023-05-31T04:01:19;59.95;;;14.25;;
20880;SDS011;10600;53.096;8.802;2023-05-31T04:02:20;68.00;;;14.52;;
20880;SDS011;10600;53.096;8.802;2023-05-31T04:03:21;75.85;;;14.18;;
20880;SDS011;10600;53.096;8.802;2023-05-31T04:04:22;73.63;;;15.55;;
20880;SDS011;10600;53.096;8.802;2023-05-31T04:05:22;56.15;;;14.95;;
20880;SDS011;10600;53.096;8.802;2023-05-31T04:06:23;84.05;;;14.95;;
20880;SDS011;10600;53.096;8.802;2023-05-31T04:07:24;51.53;;;15.20;;
20880;SDS011;10600;53.096;8.802;2023-05-31T04:08:24;69.75;;;15.63;;
20880;SDS011;10600;53.096;8.802;2023-05-31T04:09:25;58.47;;;15.63;;
20880;SDS011;10600;53.096;8.802;2023-05-31T04:10:25;63.13;;;15.95;;
20880;SDS011;10600;53.096;8.802;2023-05-31T04:11:26;67.03;;;16.05;;
20880;SDS011;10600;53.096;8.802;2023-05-31T04:12:26;71.10;;;16.85;;
20880;SDS011;10600;53.096;8.802;2023-05-31T04:13:27;57.95;;;15.75;;
20880;SDS011;10600;53.096;8.802;2023-05-31T04:14:28;60.70;;;15.77;;
20880;SDS011;10600;53.096;8.802;2023-05-31T04:15:28;49.03;;;15.32;;
20880;SDS011;10600;53.096;8.802;2023-05-31T04:16:29;97.15;;;16.83;;
20880;SDS011;10600;53.096;8.802;2023-05-31T04:17:30;54.72;;;14.50;;
20880;SDS011;10600;53.096;8.802;2023-05-31T04:18:30;51.85;;;15.10;;
20880;SDS011;10600;53.096;8.802;2023-05-31T04:19:31;58.08;;;15.05;;
20880;SDS011;10600;53.096;8.802;2023-05-31T04:20:32;51.65;;;15.40;;
20880;SDS011;10600;53.096;8.802;2023-05-31T04:21:32;51.42;;;14.27;;
20880;SDS011;10600;53.096;8.802;2023-05-31T04:22:33;63.75;;;15.57;;
20880;SDS011;10600;53.096;8.802;2023-05-31T04:23:35;42.05;;;14.27;;
20880;SDS011;10600;53.096;8.802;2023-05-31T04:24:36;49.50;;;14.20;;
20880;SDS011;10600;53.096;8.802;2023-05-31T04:25:37;50.42;;;15.18;;
20880;SDS011;10600;53.096;8.802;2023-05-31T04:26:37;60.10;;;16.00;;
20880;SDS011;10600;53.096;8.802;2023-05-31T04:27:38;42.08;;;14.35;;
20880;SDS011;10600;53.096;8.802;2023-05-31T04:28:40;43.10;;;13.95;;
20880;SDS011;10600;53.096;8.802;2023-05-31T04:29:41;41.38;;;13.80;;
20880;SDS011;10600;53.096;8.802;2023-05-31T04:30:42;48.70;;;14.50;;
20880;SDS011;10600;53.096;8.802;2023-05-31T04:31:44;45.75;;;14.32;;
20880;SDS011;10600;53.096;8.802;2023-05-31T04:32:45;47.78;;;13.35;;
20880;SDS011;10600;53.096;8.802;2023-05-31T04:33:46;39.10;;;15.10;;
20880;SDS011;10600;53.096;8.802;2023-05-31T04:34:47;39.03;;;13.80;;
20880;SDS011;10600;53.096;8.802;2023-05-31T04:35:49;39.08;;;13.40;;
20880;SDS011;10600;53.096;8.802;2023-05-31T04:36:50;34.40;;;13.00;;
20880;SDS011;10600;53.096;8.802;2023-05-31T04:37:52;37.70;;;12.45;;
20880;SDS011;10600;53.096;8.802;2023-05-31T04:38:52;43.35;;;13.52;;
20880;SDS011;10600;53.096;8.802;2023-05-31T04:39:55;39.72;;;13.10;;
20880;SDS011;10600;53.096;8.802;2023-05-31T04:40:56;33.08;;;12.10;;
20880;SDS011;10600;53.096;8.802;2023-05-31T04:41:57;34.30;;;12.18;;
20880;SDS011;10600;53.096;8.802;2023-05-31T04:42:59;33.38;;;12.68;;
20880;SDS011;10600;53.096;8.802;2023-05-31T04:44:03;37.92;;;13.70;;
20880;SDS011;10600;53.096;8.802;2023-05-31T04:45:04;42.85;;;14.48;;
20880;SDS011;10600;53.096;8.802;2023-05-31T04:46:04;34.83;;;12.60;;
20880;SDS011;10600;53.096;8.802;2023-05-31T04:47:05;39.67;;;13.25;;
20880;SDS011;10600;53.096;8.802;2023-05-31T04:48:06;40.17;;;14.15;;
20880;SDS011;10600;53.096;8.802;2023-05-31T04:49:07;37.22;;;13.35;;
20880;SDS011;10600;53.096;8.802;2023-05-31T04:50:09;36.53;;;14.77;;
20880;SDS011;10600;53.096;8.802;2023-05-31T04:51:10;31.60;;;12.65;;
20880;SDS011;10600;53.096;8.802;2023-05-31T04:52:11;36.75;;;13.57;;
20880;SDS011;10600;53.096;8.802;2023-05-31T04:53:12;41.13;;;14.27;;
20880;SDS011;10600;53.096;8.802;2023-05-31T04:54:13;32.75;;;14.18;;
20880;SDS011;10600;53.096;8.802;2023-05-31T04:55:13;35.17;;;13.38;;
20880;SDS011;10600;53.096;8.802;2023-05-31T04:56:14;37.42;;;13.75;;
20880;SDS011;10600;53.096;8.802;2023-05-31T04:57:15;34.92;;;13.07;;
20880;SDS011;10600;53.096;8.802;2023-05-31T04:58:16;33.45;;;12.32;;
20880;SDS011;10600;53.096;8.802;2023-05-31T04:59:16;38.95;;;13.40;;
20880;SDS011;10600;53.096;8.802;2023-05-31T05:00:17;36.95;;;13.50;;
20880;SDS011;10600;53.096;8.802;2023-05-31T05:01:19;34.08;;;13.15;;
20880;SDS011;10600;53.096;8.802;2023-05-31T05:02:20;38.72;;;14.27;;
20880;SDS011;10600;53.096;8.802;2023-05-31T05:03:21;29.08;;;13.07;;
20880;SDS011;10600;53.096;8.802;2023-05-31T05:04:21;34.88;;;12.90;;
20880;SDS011;10600;53.096;8.802;2023-05-31T05:05:22;36.30;;;13.73;;
20880;SDS011;10600;53.096;8.802;2023-05-31T05:06:23;34.97;;;13.70;;
20880;SDS011;10600;53.096;8.802;2023-05-31T05:07:24;31.40;;;12.82;;
20880;SDS011;10600;53.096;8.802;2023-05-31T05:08:25;32.58;;;13.13;;
20880;SDS011;10600;53.096;8.802;2023-05-31T05:09:25;32.05;;;12.55;;
20880;SDS011;10600;53.096;8.802;2023-05-31T05:10:26;37.47;;;14.38;;
20880;SDS011;10600;53.096;8.802;2023-05-31T05:11:27;33.78;;;13.43;;
20880;SDS011;10600;53.096;8.802;2023-05-31T05:12:27;40.38;;;14.65;;
20880;SDS011;10600;53.096;8.802;2023-05-31T05:13:28;35.10;;;13.40;;
20880;SDS011;10600;53.096;8.802;2023-05-31T05:14:30;35.13;;;13.50;;
20880;SDS011;10600;53.096;8.802;2023-05-31T05:15:31;35.25;;;13.07;;
20880;SDS011;10600;53.096;8.802;2023-05-31T05:16:31;33.10;;;13.77;;
20880;SDS011;10600;53.096;8.802;2023-05-31T05:17:32;29.00;;;13.27;;
20880;SDS011;10600;53.096;8.802;2023-05-31T05:18:33;32.72;;;14.48;;
20880;SDS011;10600;53.096;8.802;2023-05-31T05:19:34;30.10;;;12.82;;
20880;SDS011;10600;53.096;8.802;2023-05-31T05:20:34;36.35;;;14.20;;
20880;SDS011;10600;53.096;8.802;2023-05-31T05:21:35;33.67;;;13.80;;
20880;SDS011;10600;53.096;8.802;2023-05-31T05:22:36;28.38;;;13.13;;
20880;SDS011;10600;53.096;8.802;2023-05-31T05:23:36;32.58;;;14.85;;
20880;SDS011;10600;53.096;8.802;2023-05-31T05:24:39;30.42;;;13.20;;
20880;SDS011;10600;53.096;8.802;2023-05-31T05:25:39;32.97;;;13.98;;
20880;SDS011;10600;53.096;8.802;2023-05-31T05:26:40;28.15;;;13.35;;
20880;SDS011;10600;53.096;8.802;2023-05-31T05:27:41;30.73;;;13.73;;
20880;SDS011;10600;53.096;8.802;2023-05-31T05:28:41;33.05;;;13.77;;
20880;SDS011;10600;53.096;8.802;2023-05-31T05:29:42;28.05;;;13.20;;
20880;SDS011;10600;53.096;8.802;2023-05-31T05:30:44;31.50;;;14.27;;
20880;SDS011;10600;53.096;8.802;2023-05-31T05:31:45;27.00;;;12.40;;
20880;SDS011;10600;53.096;8.802;2023-05-31T05:32:47;30.95;;;13.05;;
20880;SDS011;10600;53.096;8.802;2023-05-31T05:33:48;28.50;;;13.13;;
20880;SDS011;10600;53.096;8.802;2023-05-31T05:34:50;32.08;;;13.73;;
20880;SDS011;10600;53.096;8.802;2023-05-31T05:35:51;26.95;;;12.68;;
20880;SDS011;10600;53.096;8.802;2023-05-31T05:36:52;26.98;;;13.00;;
20880;SDS011;10600;53.096;8.802;2023-05-31T05:37:52;27.02;;;12.10;;
20880;SDS011;10600;53.096;8.802;2023-05-31T05:38:53;23.90;;;11.15;;
20880;SDS011;10600;53.096;8.802;2023-05-31T05:39:55;26.05;;;12.63;;
20880;SDS011;10600;53.096;8.802;2023-05-31T05:40:56;27.75;;;12.88;;
20880;SDS011;10600;53.096;8.802;2023-05-31T05:41:56;26.52;;;13.35;;
20880;SDS011;10600;53.096;8.802;2023-05-31T05:42:57;26.33;;;13.60;;
20880;SDS011;10600;53.096;8.802;2023-05-31T05:43:58;32.67;;;15.07;;
20880;SDS011;10600;53.096;8.802;2023-05-31T05:44:59;27.45;;;14.15;;
20880;SDS011;10600;53.096;8.802;2023-05-31T05:45:59;30.95;;;14.75;;
20880;SDS011;10600;53.096;8.802;2023-05-31T05:47:00;32.80;;;14.77;;
20880;SDS011;10600;53.096;8.802;2023-05-31T05:48:02;27.92;;;14.10;;
20880;SDS011;10600;53.096;8.802;2023-05-31T05:49:02;27.17;;;14.10;;
20880;SDS011;10600;53.096;8.802;2023-05-31T05:50:03;28.77;;;13.95;;
20880;SDS011;10600;53.096;8.802;2023-05-31T05:51:04;33.40;;;15.05;;
20880;SDS011;10600;53.096;8.802;2023-05-31T05:52:05;26.88;;;14.45;;
20880;SDS011;10600;53.096;8.802;2023-05-31T05:53:06;27.42;;;14.02;;
20880;SDS011;10600;53.096;8.802;2023-05-31T05:54:08;29.65;;;14.38;;
20880;SDS011;10600;53.096;8.802;2023-05-31T05:55:09;26.20;;;13.43;;
20880;SDS011;10600;53.096;8.802;2023-05-31T05:56:10;26.88;;;12.63;;
20880;SDS011;10600;53.096;8.802;2023-05-31T05:57:18;25.80;;;13.23;;
20880;SDS011;10600;53.096;8.802;2023-05-31T05:58:19;27.20;;;13.27;;
20880;SDS011;10600;53.096;8.802;2023-05-31T05:59:20;22.27;;;13.18;;
20880;SDS011;10600;53.096;8.802;2023-05-31T06:00:21;26.45;;;13.48;;
20880;SDS011;10600;53.096;8.802;2023-05-31T06:01:24;24.63;;;12.77;;
20880;SDS011;10600;53.096;8.802;2023-05-31T06:02:26;24.05;;;13.27;;
20880;SDS011;10600;53.096;8.802;2023-05-31T06:03:27;26.58;;;13.32;;
20880;SDS011;10600;53.096;8.802;2023-05-31T06:04:28;22.15;;;12.88;;